createdAt,value
2023-10-26T00:00:03.275Z,990.33
2023-10-26T00:00:33.897Z,990.32
2023-10-26T00:01:04.524Z,990.35
2023-10-26T00:01:35.163Z,990.36
2023-10-26T00:02:05.794Z,990.35
2023-10-26T00:02:36.488Z,990.37
2023-10-26T00:03:07.278Z,990.37
2023-10-26T00:03:38.044Z,990.38
2023-10-26T00:04:08.827Z,990.38
2023-10-26T00:04:39.538Z,990.40
2023-10-26T00:05:10.217Z,990.40
2023-10-26T00:05:40.940Z,990.42
2023-10-26T00:06:11.660Z,990.43
2023-10-26T00:06:42.388Z,990.42
2023-10-26T00:07:13.042Z,990.42
2023-10-26T00:07:43.676Z,990.44
2023-10-26T00:08:14.364Z,990.43
2023-10-26T00:08:45.064Z,990.45
2023-10-26T00:09:15.715Z,990.46
2023-10-26T00:09:46.319Z,990.44
2023-10-26T00:10:16.971Z,990.48
2023-10-26T00:10:47.612Z,990.49
2023-10-26T00:11:18.279Z,990.49
2023-10-26T00:11:48.937Z,990.49
2023-10-26T00:12:19.558Z,990.49
2023-10-26T00:12:50.169Z,990.51
2023-10-26T00:13:20.831Z,990.53
2023-10-26T00:13:51.494Z,990.52
2023-10-26T00:14:22.126Z,990.51
2023-10-26T00:14:52.769Z,990.52
2023-10-26T00:15:23.506Z,990.52
2023-10-26T00:15:54.149Z,990.52
2023-10-26T00:16:24.840Z,990.52
2023-10-26T00:16:55.461Z,990.53
2023-10-26T00:17:26.102Z,990.52
2023-10-26T00:17:56.806Z,990.53
2023-10-26T00:18:27.556Z,990.53
2023-10-26T00:18:58.437Z,990.59
2023-10-26T00:19:29.096Z,990.55
2023-10-26T00:19:59.724Z,990.58
2023-10-26T00:20:30.370Z,990.57
2023-10-26T00:21:01.051Z,990.58
2023-10-26T00:21:31.697Z,990.59
2023-10-26T00:22:02.333Z,990.58
2023-10-26T00:22:32.948Z,990.61
2023-10-26T00:23:03.581Z,990.60
2023-10-26T00:23:34.209Z,990.61
2023-10-26T00:24:04.905Z,990.61
2023-10-26T00:24:35.549Z,990.60
2023-10-26T00:25:06.166Z,990.62
2023-10-26T00:25:36.783Z,990.64
2023-10-26T00:26:07.414Z,990.65
2023-10-26T00:26:38.076Z,990.65
2023-10-26T00:27:08.720Z,990.65
2023-10-26T00:27:39.417Z,990.67
2023-10-26T00:28:10.105Z,990.67
2023-10-26T00:28:40.697Z,990.66
2023-10-26T00:29:11.348Z,990.68
2023-10-26T00:29:41.992Z,990.66
2023-10-26T00:30:12.694Z,990.70
2023-10-26T00:30:43.332Z,990.70
2023-10-26T00:31:13.941Z,990.71
2023-10-26T00:31:44.593Z,990.71
2023-10-26T00:32:15.213Z,990.71
2023-10-26T00:32:45.883Z,990.69
2023-10-26T00:33:16.607Z,990.70
2023-10-26T00:33:47.421Z,990.72
2023-10-26T00:34:18.115Z,990.72
2023-10-26T00:34:48.734Z,990.71
2023-10-26T00:35:19.388Z,990.70
2023-10-26T00:35:50.033Z,990.72
2023-10-26T00:36:20.689Z,990.72
2023-10-26T00:36:51.301Z,990.72
2023-10-26T00:37:22.008Z,990.73
2023-10-26T00:37:52.626Z,990.75
2023-10-26T00:38:23.270Z,990.74
2023-10-26T00:38:53.963Z,990.76
2023-10-26T00:39:24.654Z,990.79
2023-10-26T00:39:55.273Z,990.79
2023-10-26T00:40:25.942Z,990.81
2023-10-26T00:40:56.535Z,990.82
2023-10-26T00:41:27.156Z,990.83
2023-10-26T00:41:57.800Z,990.86
2023-10-26T00:42:28.397Z,990.87
2023-10-26T00:42:59.069Z,990.89
2023-10-26T00:43:31.325Z,990.90
2023-10-26T00:44:00.484Z,990.91
2023-10-26T00:44:31.152Z,990.94
2023-10-26T00:45:01.782Z,990.92
2023-10-26T00:45:32.438Z,990.97
2023-10-26T00:46:03.108Z,990.96
2023-10-26T00:46:33.763Z,990.96
2023-10-26T00:47:04.368Z,991.01
2023-10-26T00:47:35.095Z,990.98
2023-10-26T00:48:05.853Z,991.01
2023-10-26T00:48:36.566Z,991.01
2023-10-26T00:49:07.403Z,991.01
2023-10-26T00:49:38.067Z,991.01
2023-10-26T00:50:08.683Z,991.00
2023-10-26T00:50:39.387Z,991.02
2023-10-26T00:51:10.033Z,991.03
2023-10-26T00:51:40.645Z,991.05
2023-10-26T00:52:11.265Z,991.04
2023-10-26T00:52:41.929Z,991.05
2023-10-26T00:53:12.532Z,991.08
2023-10-26T00:53:43.152Z,991.07
2023-10-26T00:54:13.819Z,991.09
2023-10-26T00:54:44.587Z,991.10
2023-10-26T00:55:15.262Z,991.11
2023-10-26T00:55:45.940Z,991.12
2023-10-26T00:56:16.561Z,991.13
2023-10-26T00:56:47.241Z,991.13
2023-10-26T00:57:17.846Z,991.12
2023-10-26T00:57:48.440Z,991.13
2023-10-26T00:58:19.114Z,991.14
2023-10-26T00:58:49.739Z,991.14
2023-10-26T00:59:20.371Z,991.14
2023-10-26T00:59:51.020Z,991.14
2023-10-26T01:00:21.644Z,991.14
2023-10-26T01:00:52.286Z,991.13
2023-10-26T01:01:22.872Z,991.13
2023-10-26T01:01:53.514Z,991.13
2023-10-26T01:02:24.170Z,991.15
2023-10-26T01:02:54.893Z,991.14
2023-10-26T01:03:25.595Z,991.14
2023-10-26T01:03:56.208Z,991.15
2023-10-26T01:04:26.838Z,991.16
2023-10-26T01:04:57.510Z,991.16
2023-10-26T01:05:28.169Z,991.15
2023-10-26T01:05:58.812Z,991.15
2023-10-26T01:06:29.457Z,991.17
2023-10-26T01:07:00.163Z,991.16
2023-10-26T01:07:30.764Z,991.17
2023-10-26T01:08:01.386Z,991.19
2023-10-26T01:08:32.041Z,991.18
2023-10-26T01:09:02.708Z,991.19
2023-10-26T01:09:33.336Z,991.20
2023-10-26T01:10:03.970Z,991.21
2023-10-26T01:10:34.610Z,991.21
2023-10-26T01:11:05.235Z,991.22
2023-10-26T01:11:35.892Z,991.21
2023-10-26T01:12:06.567Z,991.22
2023-10-26T01:12:37.310Z,991.22
2023-10-26T01:13:07.973Z,991.24
2023-10-26T01:13:38.635Z,991.23
2023-10-26T01:14:09.285Z,991.24
2023-10-26T01:14:39.990Z,991.23
2023-10-26T01:15:10.704Z,991.25
2023-10-26T01:15:41.453Z,991.24
2023-10-26T01:16:12.149Z,991.24
2023-10-26T01:16:42.777Z,991.26
2023-10-26T01:17:13.502Z,991.29
2023-10-26T01:17:44.176Z,991.28
2023-10-26T01:18:14.936Z,991.30
2023-10-26T01:18:45.766Z,991.30
2023-10-26T01:19:16.516Z,991.33
2023-10-26T01:19:47.144Z,991.33
2023-10-26T01:20:17.768Z,991.33
2023-10-26T01:20:48.451Z,991.35
2023-10-26T01:21:19.092Z,991.36
2023-10-26T01:21:49.727Z,991.36
2023-10-26T01:22:20.380Z,991.37
2023-10-26T01:22:51.022Z,991.37
2023-10-26T01:23:21.770Z,991.36
2023-10-26T01:23:52.393Z,991.39
2023-10-26T01:24:23.052Z,991.39
2023-10-26T01:24:53.678Z,991.38
2023-10-26T01:25:24.339Z,991.41
2023-10-26T01:25:54.972Z,991.39
2023-10-26T01:26:25.670Z,991.39
2023-10-26T01:26:56.314Z,991.41
2023-10-26T01:27:26.999Z,991.41
2023-10-26T01:27:57.606Z,991.41
2023-10-26T01:28:28.277Z,991.41
2023-10-26T01:28:58.891Z,991.42
2023-10-26T01:29:29.576Z,991.44
2023-10-26T01:30:00.253Z,991.45
2023-10-26T01:30:30.901Z,991.45
2023-10-26T01:31:01.522Z,991.46
2023-10-26T01:31:32.177Z,991.46
2023-10-26T01:32:02.826Z,991.45
2023-10-26T01:32:33.503Z,991.48
2023-10-26T01:33:04.203Z,991.48
2023-10-26T01:33:34.975Z,991.49
2023-10-26T01:34:05.669Z,991.47
2023-10-26T01:34:36.288Z,991.47
2023-10-26T01:35:06.926Z,991.50
2023-10-26T01:35:37.601Z,991.47
2023-10-26T01:36:08.276Z,991.46
2023-10-26T01:36:39.084Z,991.45
2023-10-26T01:37:09.716Z,991.46
2023-10-26T01:37:40.362Z,991.48
2023-10-26T01:38:11.047Z,991.49
2023-10-26T01:38:41.666Z,991.47
2023-10-26T01:39:12.395Z,991.48
2023-10-26T01:39:42.998Z,991.49
2023-10-26T01:40:13.620Z,991.46
2023-10-26T01:40:44.284Z,991.48
2023-10-26T01:41:14.914Z,991.49
2023-10-26T01:41:45.542Z,991.47
2023-10-26T01:42:16.265Z,991.51
2023-10-26T01:42:46.895Z,991.51
2023-10-26T01:43:17.573Z,991.54
2023-10-26T01:43:48.195Z,991.53
2023-10-26T01:44:18.861Z,991.53
2023-10-26T01:44:49.516Z,991.54
2023-10-26T01:45:20.184Z,991.53
2023-10-26T01:45:50.884Z,991.53
2023-10-26T01:46:21.563Z,991.55
2023-10-26T01:46:52.239Z,991.54
2023-10-26T01:47:22.868Z,991.53
2023-10-26T01:47:53.576Z,991.54
2023-10-26T01:48:24.316Z,991.54
2023-10-26T01:48:55.032Z,991.55
2023-10-26T01:49:25.702Z,991.55
2023-10-26T01:49:56.329Z,991.56
2023-10-26T01:50:26.962Z,991.55
2023-10-26T01:50:57.712Z,991.54
2023-10-26T01:51:28.355Z,991.56
2023-10-26T01:51:59.006Z,991.55
2023-10-26T01:52:29.633Z,991.54
2023-10-26T01:53:00.296Z,991.55
2023-10-26T01:53:30.895Z,991.55
2023-10-26T01:54:01.561Z,991.54
2023-10-26T01:54:32.206Z,991.53
2023-10-26T01:55:02.853Z,991.55
2023-10-26T01:55:33.540Z,991.53
2023-10-26T01:56:04.166Z,991.54
2023-10-26T01:56:34.791Z,991.52
2023-10-26T01:57:05.470Z,991.53
2023-10-26T01:57:36.122Z,991.53
2023-10-26T01:58:06.774Z,991.53
2023-10-26T01:58:37.370Z,991.49
2023-10-26T01:59:08.021Z,991.51
2023-10-26T01:59:38.676Z,991.50
2023-10-26T02:00:09.341Z,991.51
2023-10-26T02:00:39.936Z,991.52
2023-10-26T02:01:10.623Z,991.52
2023-10-26T02:01:41.274Z,991.53
2023-10-26T02:02:11.910Z,991.55
2023-10-26T02:02:42.614Z,991.55
2023-10-26T02:03:13.302Z,991.55
2023-10-26T02:03:44.058Z,991.55
2023-10-26T02:04:14.701Z,991.57
2023-10-26T02:04:45.509Z,991.57
2023-10-26T02:05:16.371Z,991.57
2023-10-26T02:05:47.099Z,991.57
2023-10-26T02:06:17.958Z,991.60
2023-10-26T02:06:48.868Z,991.59
2023-10-26T02:07:19.622Z,991.60
2023-10-26T02:07:50.242Z,991.59
2023-10-26T02:08:20.887Z,991.60
2023-10-26T02:08:51.573Z,991.59
2023-10-26T02:09:22.236Z,991.60
2023-10-26T02:09:52.909Z,991.62
2023-10-26T02:10:23.538Z,991.60
2023-10-26T02:10:54.208Z,991.61
2023-10-26T02:11:24.851Z,991.64
2023-10-26T02:11:55.526Z,991.62
2023-10-26T02:12:26.246Z,991.63
2023-10-26T02:12:56.947Z,991.63
2023-10-26T02:13:27.583Z,991.62
2023-10-26T02:13:58.273Z,991.60
2023-10-26T02:14:28.922Z,991.56
2023-10-26T02:14:59.583Z,991.58
2023-10-26T02:15:30.250Z,991.59
2023-10-26T02:16:00.859Z,991.57
2023-10-26T02:16:31.494Z,991.57
2023-10-26T02:17:02.127Z,991.59
2023-10-26T02:17:32.803Z,991.57
2023-10-26T02:18:03.655Z,991.57
2023-10-26T02:18:34.368Z,991.56
2023-10-26T02:19:05.148Z,991.53
2023-10-26T02:19:35.829Z,991.54
2023-10-26T02:20:06.456Z,991.55
2023-10-26T02:20:37.119Z,991.53
2023-10-26T02:21:07.957Z,991.54
2023-10-26T02:21:38.567Z,991.53
2023-10-26T02:22:09.242Z,991.54
2023-10-26T02:22:39.885Z,991.55
2023-10-26T02:23:10.567Z,991.56
2023-10-26T02:23:41.192Z,991.56
2023-10-26T02:24:11.897Z,991.54
2023-10-26T02:24:42.817Z,991.55
2023-10-26T02:25:12.923Z,991.57
2023-10-26T02:25:43.561Z,991.56
2023-10-26T02:26:14.202Z,991.59
2023-10-26T02:26:44.824Z,991.60
2023-10-26T02:27:15.560Z,991.60
2023-10-26T02:27:46.194Z,991.61
2023-10-26T02:28:16.860Z,991.65
2023-10-26T02:28:47.513Z,991.63
2023-10-26T02:29:18.188Z,991.65
2023-10-26T02:29:48.838Z,991.65
2023-10-26T02:30:19.491Z,991.66
2023-10-26T02:30:50.093Z,991.65
2023-10-26T02:31:20.756Z,991.64
2023-10-26T02:31:51.411Z,991.64
2023-10-26T02:32:22.097Z,991.64
2023-10-26T02:32:52.823Z,991.63
2023-10-26T02:33:23.486Z,991.63
2023-10-26T02:33:54.109Z,991.64
2023-10-26T02:34:24.766Z,991.65
2023-10-26T02:34:55.417Z,991.66
2023-10-26T02:35:26.036Z,991.67
2023-10-26T02:35:56.713Z,991.67
2023-10-26T02:36:27.374Z,991.69
2023-10-26T02:36:58.099Z,991.70
2023-10-26T02:37:28.779Z,991.71
2023-10-26T02:37:59.401Z,991.74
2023-10-26T02:38:30.048Z,991.75
2023-10-26T02:39:00.719Z,991.74
2023-10-26T02:39:31.465Z,991.76
2023-10-26T02:40:02.122Z,991.78
2023-10-26T02:40:32.741Z,991.78
2023-10-26T02:41:03.377Z,991.77
2023-10-26T02:41:34.078Z,991.79
2023-10-26T02:42:05.714Z,991.79
2023-10-26T02:42:35.620Z,991.78
2023-10-26T02:43:06.244Z,991.81
2023-10-26T02:43:36.876Z,991.80
2023-10-26T02:44:07.504Z,991.80
2023-10-26T02:44:38.194Z,991.79
2023-10-26T02:45:08.828Z,991.80
2023-10-26T02:45:39.469Z,991.80
2023-10-26T02:46:10.097Z,991.79
2023-10-26T02:46:40.770Z,991.79
2023-10-26T02:47:11.427Z,991.80
2023-10-26T02:47:42.704Z,991.79
2023-10-26T02:48:12.599Z,991.79
2023-10-26T02:48:43.303Z,991.79
2023-10-26T02:49:13.955Z,991.79
2023-10-26T02:49:44.666Z,991.79
2023-10-26T02:50:15.313Z,991.77
2023-10-26T02:50:45.941Z,991.78
2023-10-26T02:51:16.610Z,991.78
2023-10-26T02:51:47.255Z,991.78
2023-10-26T02:52:17.878Z,991.78
2023-10-26T02:52:48.509Z,991.78
2023-10-26T02:53:19.172Z,991.79
2023-10-26T02:53:49.823Z,991.80
2023-10-26T02:54:20.489Z,991.79
2023-10-26T02:54:51.265Z,991.78
2023-10-26T02:55:21.897Z,991.80
2023-10-26T02:55:52.524Z,991.81
2023-10-26T02:56:23.152Z,991.81
2023-10-26T02:56:53.811Z,991.81
2023-10-26T02:57:24.482Z,991.82
2023-10-26T02:57:55.140Z,991.83
2023-10-26T02:58:25.786Z,991.83
2023-10-26T02:58:56.431Z,991.82
2023-10-26T02:59:27.056Z,991.81
2023-10-26T02:59:57.742Z,991.83
2023-10-26T03:00:28.420Z,991.83
2023-10-26T03:00:59.052Z,991.82
2023-10-26T03:01:29.675Z,991.84
2023-10-26T03:02:00.318Z,991.83
2023-10-26T03:02:31.078Z,991.84
2023-10-26T03:03:01.832Z,991.82
2023-10-26T03:03:32.594Z,991.83
2023-10-26T03:04:03.319Z,991.83
2023-10-26T03:04:33.981Z,991.83
2023-10-26T03:05:04.674Z,991.84
2023-10-26T03:05:35.294Z,991.83
2023-10-26T03:06:05.936Z,991.83
2023-10-26T03:06:36.554Z,991.83
2023-10-26T03:07:07.209Z,991.84
2023-10-26T03:07:37.935Z,991.85
2023-10-26T03:08:08.582Z,991.86
2023-10-26T03:08:39.252Z,991.85
2023-10-26T03:09:09.979Z,991.86
2023-10-26T03:09:40.808Z,991.86
2023-10-26T03:10:11.630Z,991.86
2023-10-26T03:10:42.282Z,991.86
2023-10-26T03:11:12.925Z,991.87
2023-10-26T03:11:43.544Z,991.87
2023-10-26T03:12:14.200Z,991.88
2023-10-26T03:12:44.834Z,991.87
2023-10-26T03:13:15.467Z,991.87
2023-10-26T03:13:46.100Z,991.87
2023-10-26T03:14:16.752Z,991.87
2023-10-26T03:14:47.389Z,991.86
2023-10-26T03:15:18.228Z,991.86
2023-10-26T03:15:48.993Z,991.85
2023-10-26T03:16:19.638Z,991.85
2023-10-26T03:16:50.368Z,991.83
2023-10-26T03:17:21.010Z,991.84
2023-10-26T03:17:51.840Z,991.83
2023-10-26T03:18:22.779Z,991.82
2023-10-26T03:18:52.757Z,991.81
2023-10-26T03:19:23.398Z,991.80
2023-10-26T03:19:54.032Z,991.80
2023-10-26T03:20:24.796Z,991.80
2023-10-26T03:20:55.532Z,991.79
2023-10-26T03:21:26.219Z,991.79
2023-10-26T03:21:56.857Z,991.80
2023-10-26T03:22:27.535Z,991.80
2023-10-26T03:22:58.238Z,991.80
2023-10-26T03:23:28.931Z,991.79
2023-10-26T03:23:59.566Z,991.80
2023-10-26T03:24:30.280Z,991.82
2023-10-26T03:25:00.918Z,991.81
2023-10-26T03:25:31.575Z,991.82
2023-10-26T03:26:02.219Z,991.83
2023-10-26T03:26:32.893Z,991.82
2023-10-26T03:27:03.552Z,991.83
2023-10-26T03:27:34.184Z,991.82
2023-10-26T03:28:04.872Z,991.83
2023-10-26T03:28:35.490Z,991.83
2023-10-26T03:29:06.182Z,991.85
2023-10-26T03:29:36.814Z,991.87
2023-10-26T03:30:07.524Z,991.84
2023-10-26T03:30:38.130Z,991.86
2023-10-26T03:31:08.763Z,991.86
2023-10-26T03:31:39.444Z,991.87
2023-10-26T03:32:10.081Z,991.87
2023-10-26T03:32:40.748Z,991.87
2023-10-26T03:33:11.642Z,991.89
2023-10-26T03:33:41.667Z,991.89
2023-10-26T03:34:12.331Z,991.88
2023-10-26T03:34:43.240Z,991.89
2023-10-26T03:35:13.210Z,991.90
2023-10-26T03:35:43.853Z,991.90
2023-10-26T03:36:14.668Z,991.89
2023-10-26T03:36:45.396Z,991.90
2023-10-26T03:37:16.040Z,991.90
2023-10-26T03:37:46.722Z,991.90
2023-10-26T03:38:17.397Z,991.91
2023-10-26T03:38:48.021Z,991.91
2023-10-26T03:39:18.691Z,991.91
2023-10-26T03:39:49.331Z,991.92
2023-10-26T03:40:19.942Z,991.94
2023-10-26T03:40:50.581Z,991.94
2023-10-26T03:41:22.870Z,991.95
2023-10-26T03:41:51.718Z,991.95
2023-10-26T03:42:22.403Z,991.95
2023-10-26T03:42:53.058Z,991.93
2023-10-26T03:43:23.705Z,991.93
2023-10-26T03:43:54.342Z,991.93
2023-10-26T03:44:25.010Z,991.93
2023-10-26T03:44:55.674Z,991.92
2023-10-26T03:45:26.376Z,991.91
2023-10-26T03:45:57.020Z,991.91
2023-10-26T03:46:27.667Z,991.92
2023-10-26T03:46:58.326Z,991.93
2023-10-26T03:47:29.002Z,991.93
2023-10-26T03:47:59.677Z,991.91
2023-10-26T03:48:30.343Z,991.91
2023-10-26T03:49:00.974Z,991.90
2023-10-26T03:49:31.598Z,991.89
2023-10-26T03:50:02.247Z,991.89
2023-10-26T03:50:32.877Z,991.88
2023-10-26T03:51:03.551Z,991.87
2023-10-26T03:51:34.251Z,991.86
2023-10-26T03:52:05.745Z,991.85
2023-10-26T03:52:35.672Z,991.82
2023-10-26T03:53:06.358Z,991.79
2023-10-26T03:53:36.993Z,991.80
2023-10-26T03:54:07.664Z,991.78
2023-10-26T03:54:38.290Z,991.75
2023-10-26T03:55:08.937Z,991.74
2023-10-26T03:55:39.658Z,991.73
2023-10-26T03:56:10.268Z,991.73
2023-10-26T03:56:40.983Z,991.73
2023-10-26T03:57:11.691Z,991.74
2023-10-26T03:57:42.370Z,991.74
2023-10-26T03:58:13.971Z,991.75
2023-10-26T03:58:43.849Z,991.76
2023-10-26T03:59:14.530Z,991.75
2023-10-26T03:59:45.156Z,991.77
2023-10-26T04:00:15.808Z,991.78
2023-10-26T04:00:46.465Z,991.80
2023-10-26T04:01:17.099Z,991.82
2023-10-26T04:01:47.737Z,991.84
2023-10-26T04:02:18.383Z,991.85
2023-10-26T04:02:49.027Z,991.86
2023-10-26T04:03:19.796Z,991.85
2023-10-26T04:03:50.645Z,991.87
2023-10-26T04:04:21.264Z,991.88
2023-10-26T04:04:51.923Z,991.87
2023-10-26T04:05:22.568Z,991.88
2023-10-26T04:05:53.257Z,991.87
2023-10-26T04:06:24.074Z,991.88
2023-10-26T04:06:54.775Z,991.86
2023-10-26T04:07:25.407Z,991.87
2023-10-26T04:07:56.064Z,991.85
2023-10-26T04:08:26.719Z,991.85
2023-10-26T04:08:57.392Z,991.85
2023-10-26T04:09:28.098Z,991.85
2023-10-26T04:09:58.732Z,991.85
2023-10-26T04:10:29.391Z,991.85
2023-10-26T04:11:00.037Z,991.83
2023-10-26T04:11:30.671Z,991.84
2023-10-26T04:12:01.323Z,991.83
2023-10-26T04:12:31.988Z,991.83
2023-10-26T04:13:02.617Z,991.84
2023-10-26T04:13:33.275Z,991.85
2023-10-26T04:14:03.911Z,991.85
2023-10-26T04:14:34.566Z,991.85
2023-10-26T04:15:05.202Z,991.85
2023-10-26T04:15:35.860Z,991.87
2023-10-26T04:16:06.587Z,991.87
2023-10-26T04:16:37.218Z,991.88
2023-10-26T04:17:07.854Z,991.88
2023-10-26T04:17:38.502Z,991.87
2023-10-26T04:18:09.282Z,991.87
2023-10-26T04:18:39.962Z,991.87
2023-10-26T04:19:10.575Z,991.86
2023-10-26T04:19:41.225Z,991.88
2023-10-26T04:20:11.886Z,991.88
2023-10-26T04:20:43.176Z,991.86
2023-10-26T04:21:13.143Z,991.86
2023-10-26T04:21:43.756Z,991.85
2023-10-26T04:22:14.398Z,991.83
2023-10-26T04:22:45.018Z,991.84
2023-10-26T04:23:16.992Z,991.84
2023-10-26T04:23:46.240Z,991.83
2023-10-26T04:24:16.954Z,991.83
2023-10-26T04:24:47.608Z,991.83
2023-10-26T04:25:18.283Z,991.82
2023-10-26T04:25:54.756Z,991.83
2023-10-26T04:26:20.296Z,991.82
2023-10-26T04:26:50.271Z,991.81
2023-10-26T04:27:20.947Z,991.80
2023-10-26T04:27:51.636Z,991.80
2023-10-26T04:28:22.307Z,991.80
2023-10-26T04:28:53.034Z,991.80
2023-10-26T04:29:23.711Z,991.80
2023-10-26T04:29:54.397Z,991.79
2023-10-26T04:32:42.006Z,991.76
2023-10-26T04:33:12.200Z,991.76
2023-10-26T04:33:43.198Z,991.77
2023-10-26T04:34:13.512Z,991.77
2023-10-26T04:34:43.859Z,991.78
2023-10-26T04:35:13.893Z,991.78
2023-10-26T04:35:44.580Z,991.78
2023-10-26T04:36:15.292Z,991.79
2023-10-26T04:36:45.908Z,991.78
2023-10-26T04:37:16.557Z,991.78
2023-10-26T04:37:47.214Z,991.77
2023-10-26T04:38:17.868Z,991.76
2023-10-26T04:38:48.496Z,991.76
2023-10-26T04:39:19.178Z,991.76
2023-10-26T04:39:49.826Z,991.76
2023-10-26T04:40:20.516Z,991.77
2023-10-26T04:40:51.171Z,991.77
2023-10-26T04:41:21.826Z,991.77
2023-10-26T04:41:52.475Z,991.78
2023-10-26T04:42:23.196Z,991.78
2023-10-26T04:42:53.940Z,991.79
2023-10-26T04:43:24.670Z,991.78
2023-10-26T04:43:55.305Z,991.78
2023-10-26T04:44:26.017Z,991.78
2023-10-26T04:44:56.748Z,991.77
2023-10-26T04:45:27.470Z,991.76
2023-10-26T04:45:58.172Z,991.75
2023-10-26T04:46:28.796Z,991.75
2023-10-26T04:46:59.450Z,991.73
2023-10-26T04:47:30.205Z,991.71
2023-10-26T04:48:00.946Z,991.71
2023-10-26T04:48:31.675Z,991.69
2023-10-26T04:49:02.429Z,991.68
2023-10-26T04:49:33.167Z,991.67
2023-10-26T04:50:03.974Z,991.66
2023-10-26T04:50:34.682Z,991.64
2023-10-26T04:51:05.365Z,991.63
2023-10-26T04:51:36.132Z,991.62
2023-10-26T04:52:06.817Z,991.62
2023-10-26T04:52:37.503Z,991.61
2023-10-26T04:53:08.245Z,991.60
2023-10-26T04:53:38.905Z,991.61
2023-10-26T04:54:09.665Z,991.61
2023-10-26T04:54:40.434Z,991.60
2023-10-26T04:55:11.059Z,991.59
2023-10-26T04:55:41.720Z,991.58
2023-10-26T04:56:12.979Z,991.58
2023-10-26T04:56:42.891Z,991.58
2023-10-26T04:57:13.577Z,991.58
2023-10-26T04:57:44.252Z,991.59
2023-10-26T04:58:14.925Z,991.59
2023-10-26T04:58:45.572Z,991.60
2023-10-26T04:59:16.214Z,991.59
2023-10-26T04:59:46.898Z,991.60
2023-10-26T05:00:17.687Z,991.61
2023-10-26T05:00:48.294Z,991.60
2023-10-26T05:01:19.007Z,991.60
2023-10-26T05:01:49.729Z,991.60
2023-10-26T05:02:20.407Z,991.61
2023-10-26T05:02:51.130Z,991.61
2023-10-26T05:03:21.906Z,991.61
2023-10-26T05:03:52.505Z,991.62
2023-10-26T05:04:23.255Z,991.63
2023-10-26T05:04:53.961Z,991.65
2023-10-26T05:05:24.688Z,991.66
2023-10-26T05:05:55.544Z,991.67
2023-10-26T05:06:26.341Z,991.68
2023-10-26T05:06:57.137Z,991.69
2023-10-26T05:07:27.858Z,991.70
2023-10-26T05:07:58.535Z,991.70
2023-10-26T05:08:29.247Z,991.70
2023-10-26T05:09:00.930Z,991.70
2023-10-26T05:09:30.723Z,991.70
2023-10-26T05:10:01.441Z,991.70
2023-10-26T05:10:32.083Z,991.70
2023-10-26T05:11:02.749Z,991.68
2023-10-26T05:11:33.434Z,991.69
2023-10-26T05:12:04.300Z,991.68
2023-10-26T05:12:35.029Z,991.69
2023-10-26T05:13:05.687Z,991.70
2023-10-26T05:13:36.478Z,991.70
2023-10-26T05:14:07.193Z,991.71
2023-10-26T05:14:37.827Z,991.71
2023-10-26T05:15:08.895Z,991.72
2023-10-26T05:15:38.944Z,991.72
2023-10-26T05:16:09.629Z,991.72
2023-10-26T05:16:40.292Z,991.72
2023-10-26T05:17:10.997Z,991.72
2023-10-26T05:17:41.742Z,991.72
2023-10-26T05:18:12.486Z,991.72
2023-10-26T05:18:43.150Z,991.72
2023-10-26T05:19:13.911Z,991.71
2023-10-26T05:19:44.541Z,991.71
2023-10-26T05:20:15.201Z,991.70
2023-10-26T05:20:45.827Z,991.68
2023-10-26T05:21:16.542Z,991.67
2023-10-26T05:21:47.184Z,991.66
2023-10-26T05:22:17.855Z,991.65
2023-10-26T05:22:48.550Z,991.64
2023-10-26T05:23:19.241Z,991.64
2023-10-26T05:23:49.905Z,991.63
2023-10-26T05:24:20.657Z,991.63
2023-10-26T05:24:51.376Z,991.63
2023-10-26T05:25:22.031Z,991.63
2023-10-26T05:27:22.075Z,991.63
2023-10-26T05:29:32.474Z,991.58
2023-10-26T05:33:50.203Z,991.59
2023-10-26T05:34:20.167Z,991.59
2023-10-26T05:34:50.860Z,991.58
2023-10-26T05:35:21.536Z,991.58
2023-10-26T05:35:52.268Z,991.58
2023-10-26T05:36:23.011Z,991.56
2023-10-26T05:36:53.849Z,991.56
2023-10-26T05:37:24.498Z,991.56
2023-10-26T05:37:55.193Z,991.56
2023-10-26T05:38:25.849Z,991.54
2023-10-26T05:38:56.578Z,991.53
2023-10-26T05:39:27.256Z,991.53
2023-10-26T05:39:57.778Z,991.53
2023-10-26T05:40:28.462Z,991.51
2023-10-26T05:40:59.191Z,991.51
2023-10-26T05:41:29.857Z,991.50
2023-10-26T05:42:00.622Z,991.50
2023-10-26T05:42:31.098Z,991.50
2023-10-26T05:43:01.526Z,991.50
2023-10-26T05:43:32.004Z,991.50
2023-10-26T05:44:02.441Z,991.49
2023-10-26T05:44:32.860Z,991.48
2023-10-26T05:45:04.025Z,991.49
2023-10-26T05:45:34.747Z,991.48
2023-10-26T05:46:05.540Z,991.48
2023-10-26T05:46:36.013Z,991.48
2023-10-26T05:47:06.501Z,991.48
2023-10-26T05:47:37.038Z,991.48
2023-10-26T05:48:07.555Z,991.48
2023-10-26T05:48:37.941Z,991.48
2023-10-26T05:49:08.386Z,991.48
2023-10-26T05:49:38.853Z,991.48
2023-10-26T05:50:09.261Z,991.49
2023-10-26T05:50:39.856Z,991.49
2023-10-26T05:51:10.313Z,991.49
2023-10-26T05:51:40.747Z,991.50
2023-10-26T05:52:11.187Z,991.51
2023-10-26T05:52:41.622Z,991.52
2023-10-26T05:53:12.066Z,991.53
2023-10-26T05:53:42.513Z,991.54
2023-10-26T05:54:13.051Z,991.55
2023-10-26T05:54:44.002Z,991.57
2023-10-26T05:55:13.853Z,991.58
2023-10-26T05:55:44.374Z,991.59
2023-10-26T05:56:14.858Z,991.60
2023-10-26T05:56:45.342Z,991.60
2023-10-26T05:57:15.897Z,991.60
2023-10-26T05:57:46.354Z,991.60
2023-10-26T05:58:16.859Z,991.59
2023-10-26T05:58:47.302Z,991.59
2023-10-26T05:59:17.805Z,991.58
2023-10-26T05:59:48.341Z,991.58
2023-10-26T06:00:18.918Z,991.57
2023-10-26T06:00:49.468Z,991.57
2023-10-26T06:01:20.117Z,991.56
2023-10-26T06:01:50.529Z,991.56
2023-10-26T06:02:22.506Z,991.55
2023-10-26T06:02:51.687Z,991.55
2023-10-26T06:03:22.226Z,991.54
2023-10-26T06:03:52.681Z,991.53
2023-10-26T06:04:23.252Z,991.53
2023-10-26T06:04:53.753Z,991.52
2023-10-26T06:05:24.163Z,991.52
2023-10-26T06:05:54.632Z,991.51
2023-10-26T06:06:25.281Z,991.51
2023-10-26T06:06:55.815Z,991.51
2023-10-26T06:09:19.519Z,991.52
2023-10-26T06:09:49.401Z,991.52
2023-10-26T06:11:46.515Z,991.55
2023-10-26T06:12:16.669Z,991.57
2023-10-26T06:12:47.473Z,991.57
2023-10-26T06:13:17.971Z,991.58
2023-10-26T06:13:49.597Z,991.58
2023-10-26T06:14:18.736Z,991.58
2023-10-26T06:14:49.201Z,991.58
2023-10-26T06:15:19.768Z,991.59
2023-10-26T06:15:50.280Z,991.59
2023-10-26T06:16:20.945Z,991.58
2023-10-26T06:16:51.391Z,991.58
2023-10-26T06:17:21.870Z,991.58
2023-10-26T06:17:52.387Z,991.57
2023-10-26T06:18:22.873Z,991.57
2023-10-26T06:18:53.347Z,991.57
2023-10-26T06:19:23.862Z,991.57
2023-10-26T06:19:54.329Z,991.58
2023-10-26T06:20:24.779Z,991.58
2023-10-26T06:20:55.338Z,991.58
2023-10-26T06:21:25.940Z,991.59
2023-10-26T06:21:56.471Z,991.60
2023-10-26T06:22:26.935Z,991.60
2023-10-26T06:22:57.463Z,991.60
2023-10-26T06:23:28.029Z,991.60
2023-10-26T06:23:58.596Z,991.60
2023-10-26T06:24:29.091Z,991.59
2023-10-26T06:24:59.658Z,991.59
2023-10-26T06:25:30.282Z,991.59
2023-10-26T06:26:00.806Z,991.59
2023-10-26T06:26:31.360Z,991.59
2023-10-26T06:27:01.887Z,991.59
2023-10-26T06:27:32.411Z,991.60
2023-10-26T06:28:02.963Z,991.61
2023-10-26T06:28:33.590Z,991.61
2023-10-26T06:29:04.182Z,991.62
2023-10-26T06:29:34.681Z,991.63
2023-10-26T06:30:05.310Z,991.64
2023-10-26T06:30:35.886Z,991.64
2023-10-26T06:31:06.368Z,991.65
2023-10-26T06:31:37.001Z,991.65
2023-10-26T06:32:07.581Z,991.65
2023-10-26T06:32:38.157Z,991.66
2023-10-26T06:33:08.783Z,991.66
2023-10-26T06:33:39.318Z,991.66
2023-10-26T06:34:09.825Z,991.67
2023-10-26T06:34:40.393Z,991.68